• Join FlightAware (Why Join?)
  • Login
  • US Flag 
04:25AM EDT


 

Airport Tracker/Info


-or-


 

Live Flight TrackerFlight Track Log ✈ SWA921 ✈ 04-May-2013 ✈ KDEN - KSAN

Flight Track Log - Related Links

Times and Time Zones

All times are in EDT time to prevent confusion due to time zone crossing. See the SWA921 flight status page for this flight to view local times or setup timezone preferences in your user account.

Time Position Orientation Groundspeed Altitude Reporting Facility
EDT Latitude Longitude Course Direction KTS MPH feet Rate Location/Type
10:30PM 39.7667 -104.7000 244° Southwest 239 275 8,300  Level Denver TRACON
10:31PM 39.7500 -104.7833 255° West 292 336 10,600 2,160 Climbing Denver TRACON
10:32PM 39.7575 -104.8736 276° West 318 366 12,100 2,640 Climbing Denver Center
10:33PM 39.7386 -104.9964 259° West 360 414 15,300 2,820 Climbing Denver Center
10:34PM 39.7019 -105.1194 249° West 369 425 17,800 2,760 Climbing Denver Center
10:35PM 39.6467 -105.3032 244° Southwest  Level FlightAware Approximate
10:35PM 39.6633 -105.2458 248° West 378 435 20,900  Level Denver Center
10:36PM 39.6250 -105.3750 249° West 384 442 23,000 1,620 Climbing Denver Center
10:37PM 39.5856 -105.5033 248° West 398 458 24,300 1,620 Climbing Denver Center
10:38PM 39.5447 -105.6403 249° West 412 474 26,300 1,800 Climbing Denver Center
10:39PM 39.5050 -105.7822 250° West 414 476 28,000 1,560 Climbing Denver Center
10:40PM 39.4686 -105.9258 252° West 417 480 29,800 2,460 Climbing Denver Center
10:41PM 39.4161 -106.1094 250° West 403 464 33,500 2,580 Climbing Denver Center
10:42PM 39.3825 -106.2286 250° West 384 442 35,100 1,260 Climbing Denver Center
10:43PM 39.3431 -106.3722 250° West 381 438 36,100 900 Climbing Denver Center
10:44PM 39.3061 -106.4964 249° West 386 444 37,000 840 Climbing Denver Center
10:45PM 39.2706 -106.6222 250° West 388 447 37,900 480 Climbing Denver Center
10:46PM 39.2158 -106.7619 243° Southwest 394 453 38,000  Climbing Denver Center
10:47PM 39.1458 -106.8697 230° Southwest 408 470 38,000  Level Denver Center
10:48PM 39.0686 -106.9911 231° Southwest 395 455 38,000  Level Denver Center
10:49PM 38.9794 -107.1303 231° Southwest 394 453 38,000  Level Denver Center
10:50PM 38.9108 -107.2347 230° Southwest 396 456 38,000  Level Denver Center
10:51PM 38.8339 -107.3528 230° Southwest 388 447 38,000  Level Denver Center
10:52PM 38.7669 -107.4564 230° Southwest 393 452 38,000  Level Denver Center
10:53PM 38.6994 -107.5583 230° Southwest 391 450 38,000  Level Denver Center
10:55PM 38.6225 -107.6764 230° Southwest 387 445 38,000  Level Denver Center
10:56PM 38.5575 -107.7750 230° Southwest 380 437 38,000  Level Denver Center
10:57PM 38.4925 -107.8742 230° Southwest 380 437 38,000  Level Denver Center
10:58PM 38.4161 -107.9875 229° Southwest 377 434 38,000  Level Denver Center
10:59PM 38.3494 -108.0897 230° Southwest 387 445 38,000  Level Denver Center
11:00PM 38.2819 -108.1875 229° Southwest 383 441 38,000  Level Denver Center
11:01PM 38.2036 -108.3072 230° Southwest 389 448 38,000  Level Denver Center
11:02PM 38.1369 -108.4067 230° Southwest 387 445 38,000  Level Denver Center
11:03PM 38.0631 -108.5164 229° Southwest 383 441 38,000  Level Denver Center
11:04PM 37.9964 -108.6125 229° Southwest 380 437 38,000  Level Denver Center
11:05PM 37.9297 -108.7106 229° Southwest 381 438 38,000  Level Denver Center
11:06PM 37.8519 -108.8264 230° Southwest 385 443 38,000  Level Denver Center
11:07PM 37.7839 -108.9244 229° Southwest 388 447 38,000  Level Denver Center
11:08PM 37.7158 -109.0247 229° Southwest 391 450 38,000  Level Denver Center
11:09PM 37.6358 -109.1408 229° Southwest 393 452 38,000  Level Denver Center
11:10PM 37.5661 -109.2422 229° Southwest 398 458 38,000  Level Denver Center
11:11PM 37.4964 -109.3411 228° Southwest 397 457 38,000  Level Denver Center
11:12PM 37.4153 -109.4594 229° Southwest 399 459 38,000  Level Denver Center
11:13PM 37.3450 -109.5600 229° Southwest 400 460 38,000  Level Denver Center
11:14PM 37.2883 -109.6717 237° Southwest 394 453 38,000  Level Denver Center
11:15PM 37.2236 -109.8028 238° Southwest 397 457 38,000  Level Denver Center
11:16PM 37.1692 -109.9131 238° Southwest 392 451 38,000  Level Denver Center
11:17PM 37.1150 -110.0247 239° Southwest 393 452 38,000  Level Denver Center
11:18PM 37.0514 -110.1533 238° Southwest 390 449 38,000  Level Denver Center
11:19PM 36.9958 -110.2631 238° Southwest 388 447 38,000  Level Denver Center
11:20PM 36.9394 -110.3783 239° Southwest 388 447 38,000  Level Denver Center
11:21PM 36.8814 -110.4922 238° Southwest 389 448 38,000  Level Denver Center
11:22PM 36.8244 -110.6069 238° Southwest 388 447 38,000  Level Denver Center
11:23PM 36.7667 -110.7217 238° Southwest 391 450 38,000  Level Denver Center
11:24PM 36.7089 -110.8356 238° Southwest 390 449 38,000  Level Denver Center
11:25PM 36.6528 -110.9494 238° Southwest 387 445 38,000  Level Denver Center
11:26PM 36.5931 -111.0639 237° Southwest 390 449 38,000  Level Denver Center
11:27PM 36.5358 -111.1781 238° Southwest 390 449 38,000  Level Denver Center
11:28PM 36.4758 -111.2939 237° Southwest 394 453 38,000  Level Denver Center
11:29PM 36.4172 -111.4081 237° Southwest 393 452 38,000  Level Denver Center
11:30PM 36.3575 -111.5242 237° Southwest 396 456 38,000  Level Denver Center
11:31PM 36.2975 -111.6400 237° Southwest 399 459 38,000  Level Denver Center
11:32PM 36.2392 -111.7519 237° Southwest 391 450 38,000  Level Denver Center
11:33PM 36.1803 -111.8631 237° Southwest 387 445 38,000  Level Denver Center
11:34PM 36.1347 -111.9508 237° Southwest 390 449 38,000  Level Los Angeles Center
11:35PM 36.0633 -112.0864 237° Southwest 395 455 38,000  Level Los Angeles Center
11:36PM 36.0042 -112.1997 237° Southwest 395 455 38,000  Level Los Angeles Center
11:37PM 35.9408 -112.3189 237° Southwest 391 450 38,000  Level Los Angeles Center
11:38PM 35.8850 -112.4264 237° Southwest 397 457 38,000  Level Los Angeles Center
11:39PM 35.8131 -112.5622 237° Southwest 398 458 38,000  Level Los Angeles Center
11:40PM 35.7536 -112.6725 236° Southwest 393 452 38,000  Level Los Angeles Center
11:41PM 35.6944 -112.7825 237° Southwest 389 448 38,000  Level Los Angeles Center
11:42PM 35.6294 -112.9047 237° Southwest 387 445 38,000  Level Los Angeles Center
11:43PM 35.5725 -113.0092 236° Southwest 393 452 38,000  Level Los Angeles Center
11:44PM 35.5114 -113.1222 236° Southwest 397 457 38,000  Level Los Angeles Center
11:45PM 35.4503 -113.2356 237° Southwest 397 457 38,000  Level Los Angeles Center
11:46PM 35.3853 -113.3550 236° Southwest 393 452 38,000  Level Los Angeles Center
11:47PM 35.3256 -113.4636 236° Southwest 390 449 38,000  Level Los Angeles Center
11:48PM 35.2653 -113.5731 236° Southwest 390 449 38,000  Level Los Angeles Center
11:49PM 35.2053 -113.6831 236° Southwest 391 450 38,000  Level Los Angeles Center
11:50PM 35.1453 -113.7925 236° Southwest 390 449 38,000  Level Los Angeles Center
11:51PM 35.0847 -113.9025 236° Southwest 391 450 38,000  Level Los Angeles Center
11:52PM 35.0136 -114.0319 236° Southwest 391 450 38,000 -360 Level Los Angeles Center
11:53PM 34.9522 -114.1419 236° Southwest 390 449 37,300 -1,740 Descending Los Angeles Center
11:54PM 34.8914 -114.2494 235° Southwest 386 444 34,500 -2,520 Descending Los Angeles Center
11:55PM 34.8314 -114.3569 236° Southwest 384 442 32,200 -2,220 Descending Los Angeles Center
11:56PM 34.7722 -114.4636 236° Southwest 381 438 30,100 -1,140 Descending Los Angeles Center
11:57PM 34.6986 -114.5522 225° Southwest 373 429 30,000 -180 Descending Los Angeles Center
11:58PM 34.6267 -114.6300 222° Southwest 370 426 29,800 -600 Descending Los Angeles Center
11:59PM 34.5122 -114.7625 224° Southwest 407 468 28,700 -1,080 Descending Los Angeles Center
12:01AM 34.4297 -114.8564 223° Southwest 408 470 27,700 -1,080 Descending Los Angeles Center
12:02AM 34.3481 -114.9497 223° Southwest 404 465 26,600 -840 Descending Los Angeles Center
12:03AM 34.2658 -115.0417 223° Southwest 403 464 26,000 -300 Descending Los Angeles Center
12:04AM 34.1850 -115.1331 223° Southwest 399 459 26,000  Level Los Angeles Center
12:05AM 34.1042 -115.2242 223° Southwest 397 457 26,000  Level Los Angeles Center
12:06AM 34.0233 -115.3158 223° Southwest 398 458 26,000  Level Los Angeles Center
12:07AM 33.9425 -115.4069 223° Southwest 398 458 26,000  Level Los Angeles Center
12:08AM 33.8611 -115.4975 223° Southwest 398 458 26,000  Level Los Angeles Center
12:09AM 33.7808 -115.5889 223° Southwest 398 458 26,000 -540 Level Los Angeles Center
12:10AM 33.6994 -115.6792 223° Southwest 400 460 25,000 -900 Descending Los Angeles Center
12:11AM 33.6356 -115.7500 223° Southwest 395 455 24,200 -1,140 Descending Los Angeles Center
12:12AM 33.5242 -115.8739 223° Southwest 390 449 22,800 -1,200 Descending Los Angeles Center
12:13AM 33.4456 -115.9608 223° Southwest 386 444 21,800 -1,080 Descending Los Angeles Center
12:14AM 33.3672 -116.0469 223° Southwest 384 442 20,700 -1,080 Descending Los Angeles Center
12:15AM 33.2917 -116.1300 223° Southwest 373 429 19,700 -1,020 Descending Los Angeles Center
12:16AM 33.2167 -116.2131 223° Southwest 368 423 18,700 -1,680 Descending Los Angeles Center
12:17AM 33.1414 -116.2942 222° Southwest 367 422 16,400 -2,400 Descending Los Angeles Center
12:18AM 33.0697 -116.3739 223° Southwest 359 413 13,900 -2,220 Descending Los Angeles Center
12:19AM 32.9897 -116.4528 220° Southwest 347 399 12,000 -1,380 Descending Los Angeles Center
12:20AM 32.9033 -116.5033 206° Southwest 346 398 11,100 -960 Descending Los Angeles Center
12:21AM 32.8303 -116.5600 213° Southwest 304 350 10,100 -900 Descending Los Angeles Center
12:22AM 32.7958 -116.6325 241° Southwest 259 298 9,400 -1,020 Descending Los Angeles Center
12:23AM 32.7611 -116.7033 240° Southwest 249 287 8,100 -1,320 Descending Los Angeles Center
12:24AM 32.7272 -116.7769 241° Southwest 252 290 6,800 -1,380 Descending Los Angeles Center
12:25AM 32.6967 -116.8478 243° Southwest 246 283 5,400 -1,080 Descending Los Angeles Center
12:26AM 32.6761 -116.9192 251° West 234 269 4,700 -960 Descending Los Angeles Center
12:27AM 32.6836 -116.9833 278° West 205 236 3,500 -1,320 Descending Los Angeles Center
12:28AM 32.7000 -117.0500 286° West 182 209 2,000 -960 Descending Southern California TRACON
12:29AM 32.7167 -117.1000 292° West 146 168 1,500 -660 Descending Southern California TRACON
12:30AM 32.7167 -117.1500 270° West 147 169 700 -720 Descending Southern California TRACON
12:31AM 32.7344 -117.1894 298° West 144 166 200 -540 Descending Los Angeles Center
12:33AM 32.7333 -117.1833 281° West  Level FlightAware Approximate